createdAt,value
2022-10-10T00:03:00.546Z,100.00
2022-10-10T00:08:02.799Z,100.00
2022-10-10T00:13:06.322Z,100.00
2022-10-10T00:18:09.514Z,100.00
2022-10-10T00:23:11.779Z,100.00
2022-10-10T00:28:14.301Z,100.00
2022-10-10T00:33:17.117Z,100.00
2022-10-10T00:38:19.356Z,100.00
2022-10-10T00:43:23.453Z,100.00
2022-10-10T00:48:30.350Z,100.00
2022-10-10T00:53:38.643Z,100.00
2022-10-10T00:58:45.519Z,100.00
2022-10-10T01:03:47.891Z,100.00
2022-10-10T01:08:50.357Z,100.00
2022-10-10T01:14:03.110Z,100.00
2022-10-10T01:19:32.818Z,100.00
2022-10-10T01:25:00.397Z,100.00
2022-10-10T01:30:09.089Z,100.00
2022-10-10T01:35:33.558Z,100.00
2022-10-10T01:40:42.445Z,100.00
2022-10-10T01:45:51.081Z,100.00
2022-10-10T01:51:00.563Z,100.00
2022-10-10T01:56:23.715Z,100.00
2022-10-10T02:01:57.110Z,100.00
2022-10-10T02:07:08.952Z,100.00
2022-10-10T02:12:14.232Z,100.00
2022-10-10T02:17:18.219Z,100.00
2022-10-10T02:22:23.274Z,100.00
2022-10-10T02:27:45.117Z,100.00
2022-10-10T02:32:52.642Z,100.00
2022-10-10T02:37:59.710Z,100.00
2022-10-10T02:43:05.504Z,100.00
2022-10-10T02:48:08.102Z,100.00
2022-10-10T02:53:10.457Z,100.00
2022-10-10T02:58:13.583Z,100.00
2022-10-10T03:03:15.941Z,100.00
2022-10-10T03:08:18.180Z,100.00
2022-10-10T03:13:20.389Z,100.00
2022-10-10T03:18:23.137Z,100.00
2022-10-10T03:23:26.023Z,100.00
2022-10-10T03:28:28.395Z,100.00
2022-10-10T03:33:30.855Z,100.00
2022-10-10T03:38:33.302Z,100.00
2022-10-10T03:43:35.793Z,100.00
2022-10-10T03:48:38.071Z,100.00
2022-10-10T03:53:40.473Z,100.00
2022-10-10T03:58:42.803Z,100.00
2022-10-10T04:03:49.872Z,100.00
2022-10-10T04:08:54.583Z,100.00
2022-10-10T04:13:56.857Z,100.00
2022-10-10T04:18:59.183Z,100.00
2022-10-10T04:24:01.571Z,100.00
2022-10-10T04:29:04.240Z,100.00
2022-10-10T04:34:06.589Z,100.00
2022-10-10T04:39:09.641Z,100.00
2022-10-10T04:44:13.167Z,100.00
2022-10-10T04:49:15.880Z,100.00
2022-10-10T04:54:18.219Z,100.00
2022-10-10T04:59:20.378Z,100.00
2022-10-10T05:04:22.981Z,100.00
2022-10-10T05:09:25.219Z,100.00
2022-10-10T05:14:27.479Z,100.00
2022-10-10T05:19:29.923Z,100.00
2022-10-10T05:24:32.289Z,100.00
2022-10-10T05:29:37.375Z,100.00
2022-10-10T05:34:43.318Z,100.00
2022-10-10T05:39:45.994Z,100.00
2022-10-10T05:44:48.271Z,100.00
2022-10-10T05:49:50.677Z,100.00
2022-10-10T05:54:53.083Z,100.00
2022-10-10T05:59:55.662Z,100.00
2022-10-10T06:04:57.843Z,100.00
2022-10-10T06:09:59.982Z,100.00
2022-10-10T06:15:02.472Z,100.00
2022-10-10T06:20:05.329Z,100.00
2022-10-10T06:25:23.963Z,73.54
2022-10-10T06:30:30.385Z,47.88
2022-10-10T06:35:32.529Z,41.03
2022-10-10T06:40:36.857Z,41.41
2022-10-10T06:45:47.738Z,40.20
2022-10-10T06:51:05.659Z,38.60
2022-10-10T06:56:08.122Z,41.08
2022-10-10T07:01:11.138Z,45.23
2022-10-10T07:06:14.213Z,42.17
2022-10-10T07:11:16.618Z,43.03
2022-10-10T07:16:19.085Z,42.14
2022-10-10T07:21:21.220Z,42.90
2022-10-10T07:26:27.209Z,42.04
2022-10-10T07:31:29.489Z,41.57
2022-10-10T07:36:31.575Z,42.81
2022-10-10T07:41:33.716Z,41.90
2022-10-10T07:46:36.015Z,41.20
2022-10-10T07:51:39.680Z,40.89
2022-10-10T07:56:41.732Z,43.21
2022-10-10T08:01:43.838Z,41.06
2022-10-10T08:06:46.439Z,42.07
2022-10-10T08:11:48.581Z,41.51
2022-10-10T08:16:50.839Z,41.87
2022-10-10T08:21:52.923Z,39.71
2022-10-10T08:26:55.166Z,39.19
2022-10-10T08:31:57.303Z,43.99
2022-10-10T08:36:59.412Z,39.89
2022-10-10T08:42:02.937Z,38.11
2022-10-10T08:47:08.060Z,36.10
2022-10-10T08:52:38.558Z,35.08
2022-10-10T08:57:55.513Z,35.10
2022-10-10T09:03:00.542Z,38.07
2022-10-10T09:08:19.261Z,38.19
2022-10-10T09:13:45.956Z,38.64
2022-10-10T09:19:17.472Z,40.32
2022-10-10T09:24:27.987Z,40.09
2022-10-10T09:29:44.816Z,42.83
2022-10-10T09:35:01.797Z,43.09
2022-10-10T09:40:18.303Z,43.51
2022-10-10T09:45:28.865Z,43.59
2022-10-10T09:50:31.066Z,45.75
2022-10-10T09:55:40.705Z,45.44
2022-10-10T10:00:43.058Z,46.54
2022-10-10T10:06:03.597Z,47.62
2022-10-10T10:11:06.521Z,46.01
2022-10-10T10:16:15.314Z,44.75
2022-10-10T10:21:24.803Z,42.98
2022-10-10T10:26:42.530Z,45.02
2022-10-10T10:32:18.545Z,43.71
2022-10-10T10:37:48.840Z,42.40
2022-10-10T10:43:05.873Z,41.27
2022-10-10T10:48:26.979Z,42.55
2022-10-10T10:54:11.255Z,41.85
2022-10-10T10:59:41.692Z,40.61
2022-10-10T11:05:21.947Z,40.41
2022-10-10T11:10:37.847Z,41.33
2022-10-10T11:21:21.658Z,43.79
2022-10-10T11:26:40.022Z,43.02
2022-10-10T11:31:56.214Z,42.32
2022-10-10T11:37:06.824Z,45.67
2022-10-10T11:42:22.483Z,46.09
2022-10-10T11:47:58.819Z,49.01
2022-10-10T11:53:22.832Z,49.84
2022-10-10T11:58:41.837Z,49.44
2022-10-10T12:03:47.396Z,50.92
2022-10-10T12:09:05.536Z,48.75
2022-10-10T12:14:16.023Z,49.32
2022-10-10T12:19:21.067Z,50.06
2022-10-10T12:24:26.301Z,49.42
2022-10-10T12:29:51.067Z,48.07
2022-10-10T12:34:53.573Z,46.13
2022-10-10T12:40:08.442Z,45.45
2022-10-10T12:45:29.356Z,44.81
2022-10-10T12:50:43.591Z,42.03
2022-10-10T12:55:52.813Z,43.28
2022-10-10T13:01:01.576Z,43.20
2022-10-10T13:06:18.314Z,42.68
2022-10-10T13:11:20.940Z,44.57
2022-10-10T13:16:33.469Z,44.15
2022-10-10T13:21:38.061Z,43.95
2022-10-10T13:26:46.340Z,44.48
2022-10-10T13:31:49.635Z,44.73
2022-10-10T13:36:56.073Z,44.38
2022-10-10T13:41:59.531Z,44.08
2022-10-10T13:47:40.072Z,45.97
2022-10-10T13:52:42.468Z,46.50
2022-10-10T13:57:44.902Z,46.27
2022-10-10T14:02:48.171Z,48.66
2022-10-10T14:07:51.916Z,48.16
2022-10-10T14:13:00.709Z,47.55
2022-10-10T14:18:10.913Z,47.30
2022-10-10T14:23:13.884Z,49.04
2022-10-10T14:28:20.795Z,48.33
2022-10-10T14:33:23.426Z,48.28
2022-10-10T14:38:26.674Z,49.71
2022-10-10T14:43:28.874Z,48.90
2022-10-10T14:48:31.167Z,49.95
2022-10-10T14:53:33.478Z,49.99
2022-10-10T14:58:35.684Z,51.08
2022-10-10T15:03:38.087Z,53.13
2022-10-10T15:08:40.484Z,57.94
2022-10-10T15:13:43.306Z,66.92
2022-10-10T15:18:54.010Z,70.30
2022-10-10T15:23:57.152Z,75.24
2022-10-10T15:29:00.626Z,75.65
2022-10-10T15:34:03.110Z,76.70
2022-10-10T15:39:05.358Z,76.71
2022-10-10T15:44:13.993Z,79.55
2022-10-10T15:49:16.479Z,81.82
2022-10-10T15:54:20.250Z,85.16
2022-10-10T15:59:22.380Z,87.39
2022-10-10T16:04:26.777Z,89.15
2022-10-10T16:09:29.280Z,92.88
2022-10-10T16:14:31.739Z,93.90
2022-10-10T16:19:34.162Z,95.11
2022-10-10T16:24:36.672Z,97.92
2022-10-10T16:29:39.512Z,99.08
2022-10-10T16:34:44.880Z,100.00
2022-10-10T16:39:47.228Z,100.00
2022-10-10T16:44:49.508Z,100.00
2022-10-10T16:49:51.826Z,100.00
2022-10-10T16:54:53.998Z,100.00
2022-10-10T16:59:56.830Z,100.00
2022-10-10T17:04:59.279Z,100.00
2022-10-10T17:10:01.483Z,100.00
2022-10-10T17:15:04.812Z,100.00
2022-10-10T17:20:07.884Z,100.00
2022-10-10T17:25:10.642Z,100.00
2022-10-10T17:30:13.957Z,100.00
2022-10-10T17:35:16.383Z,100.00
2022-10-10T17:40:18.654Z,100.00
2022-10-10T17:45:21.516Z,100.00
2022-10-10T17:50:27.195Z,100.00
2022-10-10T17:55:29.402Z,100.00
2022-10-10T18:00:31.727Z,100.00
2022-10-10T18:05:36.203Z,100.00
2022-10-10T18:10:44.605Z,100.00
2022-10-10T18:16:04.077Z,100.00
2022-10-10T18:21:10.487Z,100.00
2022-10-10T18:26:16.209Z,100.00
2022-10-10T18:31:20.977Z,100.00
2022-10-10T18:36:29.279Z,100.00
2022-10-10T18:41:34.563Z,100.00
2022-10-10T18:46:38.838Z,100.00
2022-10-10T18:51:43.580Z,100.00
2022-10-10T18:56:47.407Z,100.00
2022-10-10T19:01:50.788Z,100.00
2022-10-10T19:06:57.456Z,100.00
2022-10-10T19:12:00.106Z,100.00
2022-10-10T19:17:02.455Z,100.00
2022-10-10T19:22:04.618Z,100.00
2022-10-10T19:27:06.763Z,100.00
2022-10-10T19:32:09.067Z,100.00
2022-10-10T19:37:11.339Z,100.00
2022-10-10T19:42:13.586Z,100.00
2022-10-10T19:47:16.961Z,100.00
2022-10-10T19:52:19.349Z,100.00
2022-10-10T19:57:21.667Z,100.00
2022-10-10T20:02:23.994Z,100.00
2022-10-10T20:07:26.109Z,100.00
2022-10-10T20:12:28.236Z,100.00
2022-10-10T20:17:30.832Z,100.00
2022-10-10T20:22:34.756Z,100.00
2022-10-10T20:27:37.183Z,100.00
2022-10-10T20:32:39.447Z,100.00
2022-10-10T20:37:41.654Z,100.00
2022-10-10T20:42:44.072Z,100.00
2022-10-10T20:47:46.339Z,100.00
2022-10-10T20:52:48.836Z,100.00
2022-10-10T20:57:51.182Z,100.00
2022-10-10T21:02:56.265Z,100.00
2022-10-10T21:07:58.484Z,100.00
2022-10-10T21:13:00.590Z,100.00
2022-10-10T21:18:02.823Z,100.00
2022-10-10T21:23:05.730Z,100.00
2022-10-10T21:28:08.232Z,100.00
2022-10-10T21:33:10.548Z,100.00
2022-10-10T21:38:12.797Z,100.00
2022-10-10T21:43:15.827Z,100.00
2022-10-10T21:48:18.089Z,100.00
2022-10-10T21:53:20.457Z,100.00
2022-10-10T21:58:23.736Z,100.00
2022-10-10T22:03:25.939Z,100.00
2022-10-10T22:08:28.225Z,100.00
2022-10-10T22:13:30.905Z,100.00
2022-10-10T22:18:34.508Z,100.00
2022-10-10T22:23:36.763Z,100.00
2022-10-10T22:28:39.435Z,100.00
2022-10-10T22:33:42.141Z,100.00
2022-10-10T22:38:45.504Z,100.00
2022-10-10T22:43:48.245Z,100.00
2022-10-10T22:48:50.404Z,100.00
2022-10-10T22:53:52.631Z,100.00
2022-10-10T22:58:55.038Z,100.00
2022-10-10T23:04:00.717Z,100.00
2022-10-10T23:09:03.021Z,100.00
2022-10-10T23:14:05.703Z,100.00
2022-10-10T23:19:07.974Z,100.00
2022-10-10T23:24:10.153Z,100.00
2022-10-10T23:29:12.393Z,100.00
2022-10-10T23:34:14.573Z,100.00
2022-10-10T23:39:16.778Z,100.00
2022-10-10T23:44:18.893Z,100.00
2022-10-10T23:49:21.285Z,100.00
2022-10-10T23:54:23.518Z,100.00
2022-10-10T23:59:25.798Z,100.00
